createdAt,value
2018-09-29T00:00:03.691Z,102629.55
2018-09-29T00:00:15.500Z,102633.45
2018-09-29T00:00:29.001Z,102633.45
2018-09-29T00:00:41.888Z,102634.39
2018-09-29T00:00:53.652Z,102629.55
2018-09-29T00:01:05.416Z,102631.45
2018-09-29T00:01:17.186Z,102631.78
2018-09-29T00:01:29.044Z,102630.14
2018-09-29T00:01:40.810Z,102631.78
2018-09-29T00:01:52.568Z,102626.56
2018-09-29T00:02:04.346Z,102630.85
2018-09-29T00:02:16.118Z,102633.68
2018-09-29T00:02:27.904Z,102627.88
2018-09-29T00:02:39.666Z,102633.45
2018-09-29T00:02:51.429Z,102629.92
2018-09-29T00:03:03.325Z,102625.08
2018-09-29T00:03:15.107Z,102632.16
2018-09-29T00:03:26.818Z,102636.81
2018-09-29T00:03:38.590Z,102631.59
2018-09-29T00:03:50.342Z,102628.05
2018-09-29T00:04:02.108Z,102633.83
2018-09-29T00:04:13.850Z,102630.29
2018-09-29T00:04:25.605Z,102628.98
2018-09-29T00:04:37.373Z,102628.61
2018-09-29T00:04:49.135Z,102633.83
2018-09-29T00:05:00.925Z,102631.22
2018-09-29T00:05:12.689Z,102630.85
2018-09-29T00:05:24.464Z,102632.89
2018-09-29T00:05:36.215Z,102628.61
2018-09-29T00:05:47.986Z,102632.89
2018-09-29T00:05:59.748Z,102628.98
2018-09-29T00:06:11.502Z,102637.37
2018-09-29T00:06:23.353Z,102638.11
2018-09-29T00:06:35.118Z,102630.29
2018-09-29T00:06:46.863Z,102633.45
2018-09-29T00:06:58.632Z,102632.52
2018-09-29T00:07:10.409Z,102633.83
2018-09-29T00:07:22.191Z,102637.37
2018-09-29T00:07:34.119Z,102635.36
2018-09-29T00:07:45.880Z,102632.52
2018-09-29T00:07:57.647Z,102633.83
2018-09-29T00:08:09.411Z,102633.08
2018-09-29T00:08:21.179Z,102633.45
2018-09-29T00:08:32.946Z,102632.52
2018-09-29T00:08:44.696Z,102631.59
2018-09-29T00:08:56.451Z,102633.45
2018-09-29T00:09:08.558Z,102633.08
2018-09-29T00:09:20.330Z,102630.14
2018-09-29T00:09:32.085Z,102632.75
2018-09-29T00:09:43.840Z,102633.68
2018-09-29T00:09:55.591Z,102631.45
2018-09-29T00:10:07.352Z,102630.48
2018-09-29T00:10:19.177Z,102638.90
2018-09-29T00:10:30.895Z,102635.69
2018-09-29T00:10:42.653Z,102633.08
2018-09-29T00:10:54.387Z,102629.92
2018-09-29T00:11:06.170Z,102634.39
2018-09-29T00:11:17.938Z,102634.39
2018-09-29T00:11:29.698Z,102631.22
2018-09-29T00:11:41.456Z,102636.44
2018-09-29T00:11:53.232Z,102632.89
2018-09-29T00:12:04.984Z,102627.68
2018-09-29T00:12:16.755Z,102638.11
2018-09-29T00:12:28.519Z,102631.22
2018-09-29T00:12:40.283Z,102631.22
2018-09-29T00:12:52.031Z,102631.22
2018-09-29T00:13:03.780Z,102631.97
2018-09-29T00:13:15.609Z,102630.29
2018-09-29T00:13:27.369Z,102630.48
2018-09-29T00:13:39.128Z,102631.22
2018-09-29T00:13:50.900Z,102631.41
2018-09-29T00:14:02.654Z,102631.03
2018-09-29T00:14:14.437Z,102637.92
2018-09-29T00:14:26.201Z,102628.80
2018-09-29T00:14:37.960Z,102631.97
2018-09-29T00:14:49.709Z,102629.73
2018-09-29T00:15:01.480Z,102628.80
2018-09-29T00:15:13.235Z,102630.10
2018-09-29T00:15:25.010Z,102633.45
2018-09-29T00:15:36.770Z,102632.33
2018-09-29T00:15:48.536Z,102629.73
2018-09-29T00:16:00.290Z,102624.52
2018-09-29T00:16:12.038Z,102627.86
2018-09-29T00:16:23.942Z,102635.88
2018-09-29T00:16:35.940Z,102628.80
2018-09-29T00:16:47.698Z,102628.42
2018-09-29T00:16:59.448Z,102624.88
2018-09-29T00:17:11.198Z,102629.73
2018-09-29T00:17:22.953Z,102627.49
2018-09-29T00:17:34.905Z,102627.13
2018-09-29T00:17:46.669Z,102630.66
2018-09-29T00:17:58.433Z,102635.50
2018-09-29T00:18:10.195Z,102633.45
2018-09-29T00:18:21.954Z,102627.68
2018-09-29T00:18:33.736Z,102626.37
2018-09-29T00:18:45.515Z,102628.98
2018-09-29T00:18:57.284Z,102630.29
2018-09-29T00:19:09.064Z,102628.61
2018-09-29T00:19:20.844Z,102626.75
2018-09-29T00:19:32.616Z,102627.68
2018-09-29T00:19:44.380Z,102631.59
2018-09-29T00:19:56.144Z,102628.98
2018-09-29T00:20:07.929Z,102632.33
2018-09-29T00:20:19.723Z,102628.42
2018-09-29T00:20:31.516Z,102628.80
2018-09-29T00:20:43.267Z,102628.42
2018-09-29T00:20:55.030Z,102627.13
2018-09-29T00:21:06.783Z,102630.66
2018-09-29T00:21:18.583Z,102630.66
2018-09-29T00:21:30.353Z,102630.66
2018-09-29T00:21:42.098Z,102625.81
2018-09-29T00:21:53.861Z,102623.58
2018-09-29T00:22:05.624Z,102627.13
2018-09-29T00:22:17.395Z,102624.88
2018-09-29T00:22:29.160Z,102622.28
2018-09-29T00:22:40.927Z,102627.68
2018-09-29T00:22:52.684Z,102621.91
2018-09-29T00:23:04.447Z,102628.05
2018-09-29T00:23:16.205Z,102624.88
2018-09-29T00:23:27.956Z,102633.27
2018-09-29T00:23:39.704Z,102625.45
2018-09-29T00:23:51.490Z,102619.30
2018-09-29T00:24:03.269Z,102626.37
2018-09-29T00:24:15.052Z,102628.61
2018-09-29T00:24:26.819Z,102624.14
2018-09-29T00:24:38.586Z,102627.68
2018-09-29T00:24:50.345Z,102624.70
2018-09-29T00:25:02.106Z,102626.75
2018-09-29T00:25:13.849Z,102621.91
2018-09-29T00:25:25.600Z,102623.40
2018-09-29T00:25:37.374Z,102624.14
2018-09-29T00:25:49.144Z,102630.29
2018-09-29T00:26:00.903Z,102625.45
2018-09-29T00:26:12.658Z,102624.52
2018-09-29T00:26:24.394Z,102624.52
2018-09-29T00:26:36.153Z,102617.99
2018-09-29T00:26:47.920Z,102624.52
2018-09-29T00:26:59.672Z,102625.25
2018-09-29T00:27:11.422Z,102617.99
2018-09-29T00:27:23.211Z,102624.33
2018-09-29T00:27:34.972Z,102625.25
2018-09-29T00:27:46.723Z,102623.95
2018-09-29T00:27:58.479Z,102621.34
2018-09-29T00:28:10.235Z,102625.25
2018-09-29T00:28:21.984Z,102627.49
2018-09-29T00:28:33.733Z,102628.80
2018-09-29T00:28:45.508Z,102624.33
2018-09-29T00:28:57.273Z,102616.50
2018-09-29T00:29:09.015Z,102623.95
2018-09-29T00:29:20.792Z,102620.05
2018-09-29T00:29:32.619Z,102622.65
2018-09-29T00:29:44.386Z,102621.34
2018-09-29T00:29:56.146Z,102623.95
2018-09-29T00:30:07.908Z,102622.65
2018-09-29T00:30:19.655Z,102626.00
2018-09-29T00:30:31.421Z,102623.02
2018-09-29T00:30:43.186Z,102620.78
2018-09-29T00:30:54.957Z,102619.48
2018-09-29T00:31:06.720Z,102618.55
2018-09-29T00:31:18.480Z,102623.95
2018-09-29T00:31:30.243Z,102620.05
2018-09-29T00:31:41.999Z,102632.14
2018-09-29T00:31:53.755Z,102626.56
2018-09-29T00:32:05.503Z,102625.63
2018-09-29T00:32:17.273Z,102619.48
2018-09-29T00:32:29.014Z,102628.61
2018-09-29T00:32:40.774Z,102621.72
2018-09-29T00:32:52.555Z,102628.23
2018-09-29T00:33:04.295Z,102620.41
2018-09-29T00:33:16.036Z,102625.63
2018-09-29T00:33:27.797Z,102625.25
2018-09-29T00:33:39.582Z,102623.02
2018-09-29T00:33:51.337Z,102626.56
2018-09-29T00:34:03.091Z,102628.23
2018-09-29T00:34:14.838Z,102631.59
2018-09-29T00:34:26.587Z,102622.46
2018-09-29T00:34:38.382Z,102624.33
2018-09-29T00:34:50.146Z,102624.33
2018-09-29T00:35:01.905Z,102626.00
2018-09-29T00:35:13.669Z,102624.33
2018-09-29T00:35:25.433Z,102625.25
2018-09-29T00:35:37.195Z,102624.70
2018-09-29T00:35:48.953Z,102627.13
2018-09-29T00:36:00.704Z,102624.88
2018-09-29T00:36:12.464Z,102629.73
2018-09-29T00:36:24.240Z,102632.33
2018-09-29T00:36:36.016Z,102630.10
2018-09-29T00:36:47.767Z,102626.19
2018-09-29T00:36:59.527Z,102631.41
2018-09-29T00:37:11.283Z,102629.17
2018-09-29T00:37:23.045Z,102633.08
2018-09-29T00:37:34.810Z,102628.80
2018-09-29T00:37:46.576Z,102633.08
2018-09-29T00:37:58.385Z,102625.25
2018-09-29T00:38:10.163Z,102623.02
2018-09-29T00:38:21.916Z,102631.77
2018-09-29T00:38:33.657Z,102631.41
2018-09-29T00:38:45.416Z,102632.14
2018-09-29T00:38:57.199Z,102633.45
2018-09-29T00:39:09.253Z,102632.14
2018-09-29T00:39:21.027Z,102631.22
2018-09-29T00:39:32.788Z,102630.84
2018-09-29T00:39:44.574Z,102628.23
2018-09-29T00:39:56.326Z,102629.91
2018-09-29T00:40:08.097Z,102631.22
2018-09-29T00:40:19.862Z,102627.30
2018-09-29T00:40:31.612Z,102630.28
2018-09-29T00:40:43.382Z,102628.61
2018-09-29T00:40:55.122Z,102633.45
2018-09-29T00:41:06.887Z,102626.37
2018-09-29T00:41:18.660Z,102628.05
2018-09-29T00:41:30.418Z,102630.47
2018-09-29T00:41:42.166Z,102633.82
2018-09-29T00:41:53.927Z,102628.61
2018-09-29T00:42:05.679Z,102633.45
2018-09-29T00:42:17.440Z,102637.36
2018-09-29T00:42:29.205Z,102627.67
2018-09-29T00:42:40.962Z,102631.22
2018-09-29T00:42:52.759Z,102630.84
2018-09-29T00:43:04.507Z,102633.08
2018-09-29T00:43:16.267Z,102633.82
2018-09-29T00:43:28.012Z,102634.19
2018-09-29T00:43:39.767Z,102631.95
2018-09-29T00:43:51.529Z,102630.28
2018-09-29T00:44:03.280Z,102629.54
2018-09-29T00:44:15.080Z,102631.95
2018-09-29T00:44:26.826Z,102634.19
2018-09-29T00:44:38.573Z,102637.55
2018-09-29T00:44:50.363Z,102631.39
2018-09-29T00:45:02.164Z,102630.09
2018-09-29T00:45:13.931Z,102633.63
2018-09-29T00:45:25.704Z,102631.39
2018-09-29T00:45:37.459Z,102635.30
2018-09-29T00:45:49.241Z,102631.39
2018-09-29T00:46:00.994Z,102634.00
2018-09-29T00:46:12.741Z,102630.09
2018-09-29T00:46:24.486Z,102636.23
2018-09-29T00:46:36.239Z,102636.61
2018-09-29T00:46:47.975Z,102634.00
2018-09-29T00:46:59.726Z,102633.63
2018-09-29T00:47:11.757Z,102639.41
2018-09-29T00:47:23.507Z,102638.84
2018-09-29T00:47:35.395Z,102634.38
2018-09-29T00:47:47.142Z,102637.91
2018-09-29T00:47:58.896Z,102631.02
2018-09-29T00:48:10.643Z,102634.94
2018-09-29T00:48:22.405Z,102632.70
2018-09-29T00:48:34.387Z,102638.47
2018-09-29T00:48:46.157Z,102635.87
2018-09-29T00:48:57.920Z,102635.87
2018-09-29T00:49:09.686Z,102643.51
2018-09-29T00:49:21.458Z,102639.41
2018-09-29T00:49:33.218Z,102635.50
2018-09-29T00:49:44.979Z,102636.43
2018-09-29T00:49:56.765Z,102637.36
2018-09-29T00:50:08.524Z,102641.27
2018-09-29T00:50:20.271Z,102636.05
2018-09-29T00:50:32.017Z,102635.12
2018-09-29T00:50:43.771Z,102646.48
2018-09-29T00:50:55.536Z,102636.43
2018-09-29T00:51:07.271Z,102636.43
2018-09-29T00:51:19.051Z,102639.41
2018-09-29T00:51:30.811Z,102642.95
2018-09-29T00:51:42.559Z,102639.78
2018-09-29T00:51:54.352Z,102637.73
2018-09-29T00:52:06.118Z,102639.78
2018-09-29T00:52:17.871Z,102643.31
2018-09-29T00:52:29.640Z,102634.56
2018-09-29T00:52:41.584Z,102637.17
2018-09-29T00:52:55.934Z,102641.27
2018-09-29T00:53:26.423Z,102640.91
2018-09-29T00:53:38.173Z,102641.64
2018-09-29T00:53:49.934Z,102639.41
2018-09-29T00:54:01.690Z,102640.34
2018-09-29T00:54:13.460Z,102644.44
2018-09-29T00:54:25.212Z,102642.20
2018-09-29T00:54:36.988Z,102636.99
2018-09-29T00:54:48.735Z,102636.80
2018-09-29T00:55:00.509Z,102643.87
2018-09-29T00:55:12.260Z,102644.25
2018-09-29T00:55:24.032Z,102641.27
2018-09-29T00:55:35.780Z,102639.41
2018-09-29T00:55:47.524Z,102641.27
2018-09-29T00:55:59.262Z,102638.66
2018-09-29T00:56:11.024Z,102647.23
2018-09-29T00:56:22.781Z,102639.41
2018-09-29T00:56:34.531Z,102639.41
2018-09-29T00:56:46.275Z,102637.36
2018-09-29T00:56:58.030Z,102635.50
2018-09-29T00:57:09.768Z,102635.50
2018-09-29T00:57:21.523Z,102637.73
2018-09-29T00:57:33.288Z,102637.55
2018-09-29T00:57:45.047Z,102636.23
2018-09-29T00:57:56.823Z,102632.33
2018-09-29T00:58:08.562Z,102634.94
2018-09-29T00:58:20.321Z,102630.66
2018-09-29T00:58:32.217Z,102629.35
2018-09-29T00:58:45.364Z,102632.14
2018-09-29T00:58:57.168Z,102637.36
2018-09-29T00:59:08.922Z,102632.89
2018-09-29T00:59:20.689Z,102628.05
2018-09-29T00:59:32.451Z,102633.27
2018-09-29T00:59:44.205Z,102624.88
2018-09-29T00:59:55.957Z,102633.63
2018-09-29T01:00:07.869Z,102635.87
2018-09-29T01:00:19.635Z,102632.33
2018-09-29T01:00:31.395Z,102632.70
2018-09-29T01:00:43.291Z,102632.33
2018-09-29T01:00:55.038Z,102630.09
2018-09-29T01:01:06.792Z,102631.95
2018-09-29T01:01:18.548Z,102632.70
2018-09-29T01:01:30.312Z,102633.63
2018-09-29T01:01:42.068Z,102635.30
2018-09-29T01:01:53.818Z,102636.23
2018-09-29T01:02:05.581Z,102630.84
2018-09-29T01:02:17.347Z,102635.12
2018-09-29T01:02:29.099Z,102630.27
2018-09-29T01:02:40.880Z,102634.38
2018-09-29T01:02:52.964Z,102630.47
2018-09-29T01:03:04.736Z,102631.20
2018-09-29T01:03:16.502Z,102631.20
2018-09-29T01:03:28.267Z,102631.58
2018-09-29T01:03:40.031Z,102631.20
2018-09-29T01:03:51.784Z,102625.99
2018-09-29T01:04:03.548Z,102634.94
2018-09-29T01:04:15.322Z,102635.30
2018-09-29T01:04:27.081Z,102635.67
2018-09-29T01:04:38.846Z,102634.75
2018-09-29T01:04:50.605Z,102632.70
2018-09-29T01:05:02.518Z,102629.53
2018-09-29T01:05:14.299Z,102632.52
2018-09-29T01:05:26.226Z,102633.44
2018-09-29T01:05:38.066Z,102633.07
2018-09-29T01:05:49.835Z,102628.60
2018-09-29T01:06:01.607Z,102629.53
2018-09-29T01:06:13.354Z,102626.92
2018-09-29T01:06:25.109Z,102626.55
2018-09-29T01:06:36.855Z,102628.23
2018-09-29T01:06:48.701Z,102632.14
2018-09-29T01:07:00.447Z,102628.23
2018-09-29T01:07:12.219Z,102628.79
2018-09-29T01:07:23.962Z,102625.06
2018-09-29T01:07:35.726Z,102626.36
2018-09-29T01:07:47.477Z,102621.16
2018-09-29T01:07:59.227Z,102628.97
2018-09-29T01:08:10.983Z,102625.80
2018-09-29T01:08:22.752Z,102632.88
2018-09-29T01:08:34.519Z,102626.73
2018-09-29T01:08:46.275Z,102626.73
2018-09-29T01:08:58.078Z,102631.58
2018-09-29T01:09:09.847Z,102629.72
2018-09-29T01:09:21.594Z,102624.50
2018-09-29T01:09:33.357Z,102632.14
2018-09-29T01:09:45.110Z,102632.52
2018-09-29T01:09:56.872Z,102629.34
2018-09-29T01:10:08.632Z,102630.27
2018-09-29T01:10:20.423Z,102631.95
2018-09-29T01:10:32.175Z,102630.27
2018-09-29T01:10:43.924Z,102629.34
2018-09-29T01:10:55.668Z,102631.58
2018-09-29T01:11:07.426Z,102627.66
2018-09-29T01:11:19.173Z,102631.58
2018-09-29T01:11:30.923Z,102629.91
2018-09-29T01:11:42.684Z,102631.20
2018-09-29T01:11:54.438Z,102626.73
2018-09-29T01:12:06.196Z,102630.64
2018-09-29T01:12:20.368Z,102634.19
2018-09-29T01:12:32.115Z,102633.25
2018-09-29T01:12:43.854Z,102631.95
2018-09-29T01:12:55.759Z,102635.12
2018-09-29T01:13:08.387Z,102638.28
2018-09-29T01:13:20.134Z,102636.42
2018-09-29T01:13:31.964Z,102632.52
2018-09-29T01:13:43.742Z,102636.80
2018-09-29T01:13:55.505Z,102635.48
2018-09-29T01:14:07.253Z,102636.80
2018-09-29T01:14:19.039Z,102634.92
2018-09-29T01:14:30.787Z,102636.23
2018-09-29T01:14:42.531Z,102629.72
2018-09-29T01:14:54.290Z,102630.64
2018-09-29T01:15:06.151Z,102633.63
2018-09-29T01:15:17.930Z,102633.81
2018-09-29T01:15:29.697Z,102642.00
2018-09-29T01:15:41.445Z,102637.72
2018-09-29T01:15:53.202Z,102639.40
2018-09-29T01:16:05.243Z,102633.25
2018-09-29T01:16:17.014Z,102632.32
2018-09-29T01:16:28.793Z,102634.55
2018-09-29T01:16:40.551Z,102632.52
2018-09-29T01:16:52.325Z,102638.09
2018-09-29T01:17:04.053Z,102639.77
2018-09-29T01:17:15.992Z,102637.53
2018-09-29T01:17:27.881Z,102631.02
2018-09-29T01:17:39.627Z,102640.14
2018-09-29T01:17:51.380Z,102636.23
2018-09-29T01:18:03.298Z,102636.23
2018-09-29T01:18:15.049Z,102636.60
2018-09-29T01:18:26.994Z,102636.60
2018-09-29T01:18:38.746Z,102637.53
2018-09-29T01:18:50.505Z,102635.67
2018-09-29T01:19:02.280Z,102634.92
2018-09-29T01:19:14.065Z,102638.47
2018-09-29T01:19:25.822Z,102636.60
2018-09-29T01:19:37.623Z,102634.92
2018-09-29T01:19:49.379Z,102638.84
2018-09-29T01:20:01.225Z,102634.92
2018-09-29T01:20:12.989Z,102640.88
2018-09-29T01:20:24.742Z,102633.06
2018-09-29T01:20:36.499Z,102633.06
2018-09-29T01:20:48.271Z,102632.13
2018-09-29T01:21:00.166Z,102638.28
2018-09-29T01:21:11.925Z,102634.00
2018-09-29T01:21:23.677Z,102634.37
2018-09-29T01:21:35.436Z,102636.60
2018-09-29T01:21:47.200Z,102637.91
2018-09-29T01:21:59.037Z,102634.55
2018-09-29T01:22:10.811Z,102637.53
2018-09-29T01:22:22.783Z,102637.53
2018-09-29T01:22:34.538Z,102639.58
2018-09-29T01:22:46.279Z,102637.91
2018-09-29T01:22:58.023Z,102642.19
2018-09-29T01:23:09.779Z,102636.97
2018-09-29T01:23:21.509Z,102643.12
2018-09-29T01:23:33.262Z,102644.42
2018-09-29T01:23:45.113Z,102641.25
2018-09-29T01:23:56.879Z,102649.27
2018-09-29T01:24:08.641Z,102644.05
2018-09-29T01:24:20.386Z,102641.81
2018-09-29T01:24:32.145Z,102646.66
2018-09-29T01:24:43.902Z,102646.09
2018-09-29T01:24:55.682Z,102641.81
2018-09-29T01:25:07.443Z,102650.20
2018-09-29T01:25:19.384Z,102645.36
2018-09-29T01:25:31.153Z,102647.97
2018-09-29T01:25:42.904Z,102648.34
2018-09-29T01:25:54.655Z,102648.89
2018-09-29T01:26:06.584Z,102647.97
2018-09-29T01:26:18.339Z,102644.98
2018-09-29T01:26:30.102Z,102647.59
2018-09-29T01:26:41.850Z,102641.45
2018-09-29T01:26:53.648Z,102641.45
2018-09-29T01:27:05.401Z,102646.66
2018-09-29T01:27:17.142Z,102647.03
2018-09-29T01:27:28.887Z,102647.97
2018-09-29T01:27:40.631Z,102646.28
2018-09-29T01:27:52.381Z,102641.45
2018-09-29T01:28:04.136Z,102642.75
2018-09-29T01:28:15.918Z,102640.88
2018-09-29T01:28:27.681Z,102647.97
2018-09-29T01:28:39.445Z,102641.81
2018-09-29T01:28:51.191Z,102639.77
2018-09-29T01:29:02.942Z,102637.16
2018-09-29T01:29:14.695Z,102639.77
2018-09-29T01:29:26.459Z,102640.14
2018-09-29T01:29:38.232Z,102633.25
2018-09-29T01:29:49.979Z,102634.55
2018-09-29T01:30:01.874Z,102632.32
2018-09-29T01:30:13.624Z,102634.92
2018-09-29T01:30:25.406Z,102626.17
2018-09-29T01:30:37.171Z,102632.69
2018-09-29T01:30:48.928Z,102624.50
2018-09-29T01:31:00.679Z,102625.80
2018-09-29T01:31:12.423Z,102628.97
2018-09-29T01:31:24.178Z,102627.11
2018-09-29T01:31:35.930Z,102624.50
2018-09-29T01:31:47.659Z,102629.34
2018-09-29T01:31:59.410Z,102623.56
2018-09-29T01:32:11.187Z,102623.56
2018-09-29T01:32:23.031Z,102623.00
2018-09-29T01:32:34.812Z,102623.00
2018-09-29T01:32:46.643Z,102628.41
2018-09-29T01:32:58.409Z,102624.50
2018-09-29T01:33:10.299Z,102620.41
2018-09-29T01:33:22.061Z,102623.20
2018-09-29T01:33:33.851Z,102619.09
2018-09-29T01:33:45.607Z,102620.41
2018-09-29T01:33:57.359Z,102618.72
2018-09-29T01:34:09.159Z,102616.12
2018-09-29T01:34:20.948Z,102619.66
2018-09-29T01:34:32.702Z,102621.33
2018-09-29T01:34:44.447Z,102619.09
2018-09-29T01:34:56.200Z,102621.33
2018-09-29T01:35:07.965Z,102622.27
2018-09-29T01:35:19.803Z,102620.96
2018-09-29T01:35:31.539Z,102620.77
2018-09-29T01:35:43.345Z,102621.33
2018-09-29T01:35:55.190Z,102618.72
2018-09-29T01:36:06.944Z,102620.59
2018-09-29T01:36:18.733Z,102617.42
2018-09-29T01:36:30.493Z,102621.89
2018-09-29T01:36:42.391Z,102616.68
2018-09-29T01:36:54.126Z,102617.61
2018-09-29T01:37:05.874Z,102617.61
2018-09-29T01:37:17.731Z,102616.68
2018-09-29T01:37:29.496Z,102615.38
2018-09-29T01:37:41.377Z,102612.95
2018-09-29T01:37:53.277Z,102612.39
2018-09-29T01:38:05.051Z,102608.86
2018-09-29T01:38:16.801Z,102615.38
2018-09-29T01:38:28.574Z,102614.63
2018-09-29T01:38:40.320Z,102612.95
2018-09-29T01:38:52.259Z,102614.63
2018-09-29T01:39:04.095Z,102615.00
2018-09-29T01:39:15.868Z,102612.77
2018-09-29T01:39:27.848Z,102612.77
2018-09-29T01:39:39.704Z,102611.83
2018-09-29T01:39:51.477Z,102611.47
2018-09-29T01:40:03.427Z,102615.38
2018-09-29T01:40:15.413Z,102616.30
2018-09-29T01:40:27.154Z,102614.07
2018-09-29T01:40:38.917Z,102615.38
2018-09-29T01:40:50.691Z,102615.75
2018-09-29T01:41:02.623Z,102617.98
2018-09-29T01:41:14.411Z,102617.98
2018-09-29T01:41:26.172Z,102614.07
2018-09-29T01:41:38.099Z,102615.38
2018-09-29T01:41:49.851Z,102615.75
2018-09-29T01:42:01.593Z,102618.35
2018-09-29T01:42:13.335Z,102623.20
2018-09-29T01:42:25.089Z,102620.96
2018-09-29T01:42:36.846Z,102620.22
2018-09-29T01:42:48.805Z,102620.59
2018-09-29T01:43:00.566Z,102622.27
2018-09-29T01:43:12.321Z,102618.72
2018-09-29T01:43:24.073Z,102620.96
2018-09-29T01:43:35.820Z,102613.88
2018-09-29T01:43:47.564Z,102619.28
2018-09-29T01:43:59.359Z,102615.00
2018-09-29T01:44:11.125Z,102620.22
2018-09-29T01:44:22.892Z,102614.07
2018-09-29T01:44:34.673Z,102616.30
2018-09-29T01:44:46.447Z,102617.23
2018-09-29T01:44:58.182Z,102615.94
2018-09-29T01:45:09.963Z,102618.17
2018-09-29T01:45:21.818Z,102616.87
2018-09-29T01:45:33.623Z,102615.94
2018-09-29T01:45:45.372Z,102617.61
2018-09-29T01:45:57.148Z,102614.27
2018-09-29T01:46:08.900Z,102618.17
2018-09-29T01:46:20.656Z,102618.17
2018-09-29T01:46:32.626Z,102612.95
2018-09-29T01:46:44.374Z,102614.27
2018-09-29T01:46:56.139Z,102615.94
2018-09-29T01:47:07.958Z,102615.38
2018-09-29T01:47:19.694Z,102619.47
2018-09-29T01:47:31.454Z,102615.94
2018-09-29T01:47:43.251Z,102612.77
2018-09-29T01:47:55.011Z,102615.38
2018-09-29T01:48:06.790Z,102615.00
2018-09-29T01:48:18.542Z,102614.81
2018-09-29T01:48:30.310Z,102616.12
2018-09-29T01:48:42.054Z,102612.20
2018-09-29T01:48:53.803Z,102615.19
2018-09-29T01:49:05.560Z,102614.81
2018-09-29T01:49:17.317Z,102611.64
2018-09-29T01:49:29.067Z,102613.14
2018-09-29T01:49:41.740Z,102614.81
2018-09-29T01:49:53.487Z,102612.58
2018-09-29T01:50:05.242Z,102612.58
2018-09-29T01:50:16.984Z,102612.20
2018-09-29T01:50:28.734Z,102613.88
2018-09-29T01:50:40.496Z,102610.72
2018-09-29T01:50:52.248Z,102613.52
2018-09-29T01:51:04.032Z,102606.44
2018-09-29T01:51:15.791Z,102609.04
2018-09-29T01:51:27.538Z,102609.41
2018-09-29T01:51:39.310Z,102609.97
2018-09-29T01:51:51.049Z,102605.50
2018-09-29T01:52:02.790Z,102609.97
2018-09-29T01:52:14.571Z,102609.04
2018-09-29T01:52:26.348Z,102606.44
2018-09-29T01:52:38.094Z,102610.91
2018-09-29T01:52:49.848Z,102613.14
2018-09-29T01:53:01.593Z,102605.12
2018-09-29T01:53:13.377Z,102606.99
2018-09-29T01:53:25.148Z,102605.69
2018-09-29T01:53:36.920Z,102606.99
2018-09-29T01:53:48.658Z,102607.92
2018-09-29T01:54:00.526Z,102607.36
2018-09-29T01:54:12.274Z,102600.84
2018-09-29T01:54:24.032Z,102603.08
2018-09-29T01:54:35.783Z,102604.39
2018-09-29T01:54:47.563Z,102606.63
2018-09-29T01:54:59.624Z,102605.32
2018-09-29T01:55:11.370Z,102608.67
2018-09-29T01:55:23.147Z,102608.67
2018-09-29T01:55:35.061Z,102609.04
2018-09-29T01:55:46.807Z,102604.39
2018-09-29T01:55:58.552Z,102606.99
2018-09-29T01:56:10.343Z,102602.71
2018-09-29T01:56:22.090Z,102606.63
2018-09-29T01:56:33.844Z,102606.06
2018-09-29T01:56:45.590Z,102608.67
2018-09-29T01:56:57.358Z,102608.30
2018-09-29T01:57:09.148Z,102611.83
2018-09-29T01:57:20.899Z,102605.69
2018-09-29T01:57:32.656Z,102608.86
2018-09-29T01:57:44.446Z,102607.36
2018-09-29T01:57:56.216Z,102598.23
2018-09-29T01:58:07.985Z,102611.09
2018-09-29T01:58:19.731Z,102607.18
2018-09-29T01:58:31.471Z,102608.48
2018-09-29T01:58:43.221Z,102603.64
2018-09-29T01:58:54.985Z,102606.44
2018-09-29T01:59:06.760Z,102605.87
2018-09-29T01:59:18.520Z,102605.32
2018-09-29T01:59:30.285Z,102606.81
2018-09-29T01:59:42.060Z,102609.79
2018-09-29T01:59:53.802Z,102607.55
2018-09-29T02:00:05.559Z,102607.18
2018-09-29T02:00:17.302Z,102610.72
2018-09-29T02:00:29.050Z,102612.77
2018-09-29T02:00:40.807Z,102609.42
2018-09-29T02:00:52.577Z,102608.11
2018-09-29T02:01:04.360Z,102609.79
2018-09-29T02:01:16.160Z,102613.52
2018-09-29T02:01:27.926Z,102611.47
2018-09-29T02:01:39.671Z,102613.14
2018-09-29T02:01:51.432Z,102609.97
2018-09-29T02:02:03.179Z,102613.88
2018-09-29T02:02:14.915Z,102616.12
2018-09-29T02:02:26.682Z,102614.81
2018-09-29T02:02:38.442Z,102622.27
2018-09-29T02:02:50.198Z,102615.75
2018-09-29T02:03:07.291Z,102616.68
2018-09-29T02:03:19.056Z,102615.19
2018-09-29T02:03:30.803Z,102614.25
2018-09-29T02:03:42.571Z,102621.70
2018-09-29T02:03:54.314Z,102621.70
2018-09-29T02:04:06.076Z,102622.08
2018-09-29T02:04:17.826Z,102623.75
2018-09-29T02:04:29.570Z,102619.84
2018-09-29T02:04:41.310Z,102621.14
2018-09-29T02:04:54.165Z,102621.48
2018-09-29T02:05:05.926Z,102628.59
2018-09-29T02:05:17.682Z,102628.22
2018-09-29T02:05:29.427Z,102628.22
2018-09-29T02:05:42.485Z,102628.78
2018-09-29T02:05:54.234Z,102625.24
2018-09-29T02:06:05.979Z,102630.45
2018-09-29T02:06:17.749Z,102625.24
2018-09-29T02:06:29.514Z,102626.17
2018-09-29T02:06:41.255Z,102626.91
2018-09-29T02:06:53.023Z,102626.91
2018-09-29T02:07:04.800Z,102627.66
2018-09-29T02:07:16.552Z,102626.91
2018-09-29T02:07:28.294Z,102626.91
2018-09-29T02:07:40.044Z,102628.59
2018-09-29T02:07:51.822Z,102627.28
2018-09-29T02:08:03.610Z,102625.39
2018-09-29T02:08:15.320Z,102626.69
2018-09-29T02:08:27.066Z,102622.78
2018-09-29T02:08:38.827Z,102626.55
2018-09-29T02:08:50.582Z,102622.08
2018-09-29T02:09:02.339Z,102624.09
2018-09-29T02:09:14.103Z,102622.78
2018-09-29T02:09:25.856Z,102623.15
2018-09-29T02:09:37.627Z,102620.17
2018-09-29T02:09:49.604Z,102618.87
2018-09-29T02:10:01.364Z,102623.75
2018-09-29T02:10:13.127Z,102623.94
2018-09-29T02:10:24.871Z,102619.84
2018-09-29T02:10:36.900Z,102619.47
2018-09-29T02:10:48.655Z,102621.14
2018-09-29T02:11:00.432Z,102621.70
2018-09-29T02:11:12.210Z,102625.61
2018-09-29T02:11:23.991Z,102623.75
2018-09-29T02:11:35.742Z,102625.61
2018-09-29T02:11:47.507Z,102614.95
2018-09-29T02:11:59.259Z,102620.17
2018-09-29T02:12:11.015Z,102621.70
2018-09-29T02:12:22.772Z,102615.55
2018-09-29T02:12:34.519Z,102619.84
2018-09-29T02:12:46.271Z,102619.84
2018-09-29T02:12:58.031Z,102618.87
2018-09-29T02:13:09.798Z,102620.41
2018-09-29T02:13:21.555Z,102620.77
2018-09-29T02:13:33.294Z,102625.98
2018-09-29T02:13:45.027Z,102621.14
2018-09-29T02:13:56.780Z,102624.69
2018-09-29T02:14:08.523Z,102627.28
2018-09-29T02:14:20.266Z,102626.91
2018-09-29T02:14:32.030Z,102625.24
2018-09-29T02:14:43.798Z,102629.16
2018-09-29T02:14:55.539Z,102626.91